Time;durP1;ratioP1;P1;durP2;ratioP2;P2;SDS_P1;SDS_P2;PMS_P1;PMS_P2;Temp;Humidity;BMP_temperature;BMP_pressure;BME280_temperature;BME280_humidity;BME280_pressure;Samples;Min_cycle;Max_cycle;Signal;HPM_P1;HPM_P2
2023/10/06 00:03:05;;;;;;;0.60;0.60;;;20.10;68.00;;;;;;5091047;28;20520;-81
2023/10/06 00:05:31;;;;;;;0.40;0.40;;;20.10;68.00;;;;;;5086185;28;20036;-82
2023/10/06 00:07:57;;;;;;;0.40;0.40;;;20.10;68.00;;;;;;5084197;28;20051;-81
2023/10/06 00:10:27;;;;;;;0.60;0.60;;;20.10;67.90;;;;;;5073382;28;20036;-80
2023/10/06 00:12:59;;;;;;;0.70;0.70;;;20.10;67.90;;;;;;5092134;28;20039;-81
2023/10/06 00:15:35;;;;;;;0.40;0.40;;;20.10;67.70;;;;;;5090119;28;20493;-81
2023/10/06 00:18:07;;;;;;;0.35;0.35;;;20.10;67.70;;;;;;5089741;28;20038;-81
2023/10/06 00:20:42;;;;;;;0.73;0.73;;;20.10;67.60;;;;;;5096416;28;20032;-80
2023/10/06 00:23:14;;;;;;;0.70;0.70;;;20.10;67.70;;;;;;5099102;28;20047;-82
2023/10/06 00:25:43;;;;;;;0.60;0.55;;;20.10;67.60;;;;;;5096921;28;20036;-82
2023/10/06 00:28:16;;;;;;;0.50;0.50;;;20.10;67.60;;;;;;5088706;28;20581;-81
2023/10/06 00:30:42;;;;;;;1.80;0.60;;;20.10;67.60;;;;;;5083946;28;20118;-82
2023/10/06 00:33:10;;;;;;;1.85;0.60;;;20.00;68.30;;;;;;5093161;28;20548;-81
2023/10/06 00:35:36;;;;;;;0.80;0.50;;;20.10;67.60;;;;;;5097098;28;20390;-81
2023/10/06 00:38:12;;;;;;;0.40;0.40;;;20.00;67.50;;;;;;5096055;28;20093;-81
2023/10/06 00:40:40;;;;;;;0.60;0.52;;;20.10;67.60;;;;;;5114186;27;20039;-81
2023/10/06 00:43:08;;;;;;;0.50;0.50;;;20.00;67.50;;;;;;5099903;28;20024;-82
2023/10/06 00:45:39;;;;;;;0.77;0.40;;;20.00;67.50;;;;;;5106938;27;20098;-81
2023/10/06 00:48:13;;;;;;;0.70;0.70;;;20.10;67.60;;;;;;5092555;28;20051;-81
2023/10/06 00:50:39;;;;;;;0.40;0.40;;;20.10;67.50;;;;;;5071810;28;20050;-80
2023/10/06 00:53:04;;;;;;;0.45;0.40;;;20.10;67.60;;;;;;5078346;28;20040;-81
2023/10/06 00:55:30;;;;;;;0.50;0.50;;;20.10;67.60;;;;;;5077434;28;20060;-81
2023/10/06 00:57:56;;;;;;;0.73;0.50;;;20.10;67.60;;;;;;5059117;28;20115;-81
2023/10/06 01:00:22;;;;;;;0.80;0.75;;;20.10;68.30;;;;;;5090227;28;20135;-81
2023/10/06 01:02:50;;;;;;;0.50;0.50;;;20.00;67.40;;;;;;5082171;28;20536;-81
2023/10/06 01:05:16;;;;;;;2.42;0.60;;;20.00;67.40;;;;;;5078085;28;20046;-81
2023/10/06 01:07:47;;;;;;;0.50;0.50;;;20.00;67.40;;;;;;5093883;28;20110;-82
2023/10/06 01:10:27;;;;;;;0.63;0.60;;;20.00;67.40;;;;;;5086869;28;20043;-81
2023/10/06 01:12:54;;;;;;;0.47;0.47;;;20.00;67.40;;;;;;5076693;28;20116;-81
2023/10/06 01:15:20;;;;;;;0.50;0.50;;;20.00;67.50;;;;;;5096051;28;20124;-81
2023/10/06 01:17:48;;;;;;;1.58;0.85;;;20.00;67.50;;;;;;5093872;28;20577;-81
2023/10/06 01:20:33;;;;;;;0.50;0.50;;;20.00;67.50;;;;;;5097256;28;20404;-81
2023/10/06 01:22:58;;;;;;;0.50;0.50;;;20.00;67.60;;;;;;5093734;28;20499;-81
2023/10/06 01:25:25;;;;;;;0.60;0.60;;;20.00;67.50;;;;;;5088508;28;20059;-81
2023/10/06 01:27:51;;;;;;;0.60;0.60;;;20.10;67.60;;;;;;5089008;28;21207;-82
2023/10/06 01:30:17;;;;;;;0.50;0.50;;;20.00;67.50;;;;;;5089835;28;20043;-81
2023/10/06 01:32:49;;;;;;;0.60;0.60;;;20.00;67.50;;;;;;5084974;28;20047;-81
2023/10/06 01:35:23;;;;;;;0.60;0.60;;;20.10;67.60;;;;;;5091842;28;20554;-81
2023/10/06 01:37:58;;;;;;;0.60;0.52;;;20.00;67.50;;;;;;5093804;28;20040;-81
2023/10/06 01:42:49;;;;;;;0.40;0.40;;;20.00;67.40;;;;;;5090331;28;20102;-81
2023/10/06 01:45:17;;;;;;;0.60;0.60;;;20.00;67.50;;;;;;5088145;28;20044;-81
2023/10/06 01:47:43;;;;;;;0.50;0.50;;;20.00;67.50;;;;;;5089485;28;20058;-81
2023/10/06 01:50:09;;;;;;;0.50;0.50;;;20.00;67.50;;;;;;5090350;28;20497;-81
2023/10/06 01:52:35;;;;;;;0.50;0.50;;;20.00;67.40;;;;;;5091868;28;20399;-80
2023/10/06 01:55:09;;;;;;;0.63;0.63;;;20.00;67.50;;;;;;5088519;28;20147;-81
2023/10/06 01:57:35;;;;;;;0.40;0.40;;;20.00;67.40;;;;;;5088965;28;20053;-80
2023/10/06 02:00:03;;;;;;;0.50;0.50;;;20.00;67.50;;;;;;5088452;28;20102;-81
2023/10/06 02:02:28;;;;;;;0.60;0.55;;;20.00;67.40;;;;;;5094309;28;20032;-81
2023/10/06 02:04:57;;;;;;;0.45;0.45;;;20.00;67.50;;;;;;5085902;28;20058;-81
2023/10/06 02:07:22;;;;;;;0.50;0.50;;;20.00;67.40;;;;;;5086243;28;20040;-81
2023/10/06 02:09:49;;;;;;;0.40;0.40;;;20.00;67.40;;;;;;5086975;28;20115;-81
2023/10/06 02:12:15;;;;;;;0.52;0.50;;;20.00;67.40;;;;;;5085101;28;20069;-82
2023/10/06 02:14:41;;;;;;;0.60;0.60;;;20.00;67.40;;;;;;5090189;28;20043;-81
2023/10/06 02:17:11;;;;;;;0.70;0.70;;;20.00;67.30;;;;;;5089509;28;20043;-82
2023/10/06 02:19:37;;;;;;;0.60;0.50;;;20.00;67.30;;;;;;5086992;28;20436;-80
2023/10/06 02:22:06;;;;;;;0.60;0.60;;;20.00;67.30;;;;;;5094358;28;20042;-81
2023/10/06 02:24:32;;;;;;;0.65;0.65;;;20.00;67.40;;;;;;5086957;28;20118;-81
2023/10/06 02:27:00;;;;;;;0.60;0.60;;;20.00;67.40;;;;;;5091647;28;20051;-81
2023/10/06 02:29:26;;;;;;;0.65;0.65;;;20.00;67.30;;;;;;5085951;28;20033;-80
2023/10/06 02:32:02;;;;;;;0.35;0.35;;;20.00;67.30;;;;;;5088559;28;20036;-81
2023/10/06 02:34:29;;;;;;;0.47;0.47;;;20.00;67.30;;;;;;5084108;28;20074;-81
2023/10/06 02:36:56;;;;;;;0.60;0.60;;;20.00;67.30;;;;;;5083408;28;20512;-80
2023/10/06 02:39:21;;;;;;;0.50;0.50;;;20.00;67.40;;;;;;5085444;28;20505;-81
2023/10/06 02:41:47;;;;;;;0.40;0.40;;;19.90;67.30;;;;;;5077822;28;20062;-81
2023/10/06 02:44:18;;;;;;;0.60;0.60;;;20.00;67.40;;;;;;5085940;28;20045;-81
2023/10/06 02:46:44;;;;;;;0.73;0.50;;;20.00;67.20;;;;;;5088000;28;20484;-80
2023/10/06 02:49:11;;;;;;;0.70;0.70;;;20.00;67.30;;;;;;5089171;28;20123;-80
2023/10/06 02:51:49;;;;;;;0.60;0.60;;;20.00;67.30;;;;;;5084216;28;20028;-78
2023/10/06 02:56:45;;;;;;;0.50;0.50;;;20.00;67.30;;;;;;5085794;28;20044;-80
2023/10/06 02:59:26;;;;;;;0.40;0.40;;;20.00;67.30;;;;;;5090623;28;20412;-80
2023/10/06 03:02:15;;;;;;;0.50;0.50;;;20.00;67.10;;;;;;5088346;28;20138;-80
2023/10/06 03:04:43;;;;;;;0.75;0.40;;;19.90;67.20;;;;;;5079218;28;20095;-80
2023/10/06 03:07:14;;;;;;;0.65;0.65;;;20.00;67.20;;;;;;5084359;28;20032;-80
2023/10/06 03:09:45;;;;;;;0.60;0.60;;;20.00;67.20;;;;;;5085075;28;20047;-79
2023/10/06 03:12:15;;;;;;;0.68;0.68;;;20.00;67.20;;;;;;5074071;28;20076;-80
2023/10/06 03:14:42;;;;;;;0.47;0.45;;;19.90;67.10;;;;;;5078544;28;20078;-79
2023/10/06 03:17:08;;;;;;;0.60;0.60;;;19.90;67.10;;;;;;5090353;28;20079;-80
2023/10/06 03:19:40;;;;;;;0.55;0.55;;;19.90;67.10;;;;;;5093111;28;20051;-80
2023/10/06 03:22:10;;;;;;;0.50;0.50;;;19.90;67.30;;;;;;5087263;28;20138;-80
2023/10/06 03:24:58;;;;;;;0.57;0.57;;;19.90;67.10;;;;;;5088709;28;20072;-80
2023/10/06 03:27:24;;;;;;;0.43;0.43;;;19.90;67.10;;;;;;5082056;28;20040;-80
2023/10/06 03:29:54;;;;;;;0.77;0.40;;;19.90;67.10;;;;;;5082455;28;20037;-80
2023/10/06 03:32:33;;;;;;;0.40;0.40;;;19.90;67.10;;;;;;5085106;28;20052;-80
2023/10/06 03:37:51;;;;;;;0.40;0.40;;;19.90;67.20;;;;;;5086450;28;20075;-80
2023/10/06 03:40:43;;;;;;;0.57;0.57;;;19.90;67.20;;;;;;5089077;28;20170;-80
2023/10/06 03:43:12;;;;;;;0.45;0.45;;;19.90;67.20;;;;;;5090005;28;20066;-80
2023/10/06 03:45:40;;;;;;;0.60;0.60;;;19.90;67.20;;;;;;5088603;28;20043;-80
2023/10/06 03:48:10;;;;;;;0.30;0.30;;;19.90;67.20;;;;;;5088495;28;20036;-81
2023/10/06 03:50:39;;;;;;;0.50;0.50;;;19.90;67.10;;;;;;5086759;28;20456;-81
2023/10/06 03:53:08;;;;;;;0.38;0.38;;;19.90;67.20;;;;;;5088494;28;20074;-80
2023/10/06 03:55:45;;;;;;;0.60;0.47;;;19.90;67.90;;;;;;5091290;28;20575;-81
2023/10/06 03:58:13;;;;;;;0.32;0.30;;;19.90;67.00;;;;;;5084483;28;20044;-80
2023/10/06 04:00:40;;;;;;;0.45;0.45;;;19.90;67.10;;;;;;5086817;28;20039;-81
2023/10/06 04:03:17;;;;;;;0.60;0.60;;;19.90;67.80;;;;;;5083998;28;20048;-81
2023/10/06 04:05:48;;;;;;;0.47;0.47;;;19.90;67.10;;;;;;5089708;28;22164;-80
2023/10/06 04:08:18;;;;;;;0.32;0.32;;;19.90;67.10;;;;;;5090297;28;20031;-81
2023/10/06 04:10:45;;;;;;;0.50;0.50;;;19.90;67.00;;;;;;5062966;28;20482;-80
2023/10/06 04:13:11;;;;;;;0.50;0.50;;;19.90;67.00;;;;;;5086298;28;20123;-81
2023/10/06 04:15:38;;;;;;;0.40;0.40;;;19.90;67.10;;;;;;5087518;28;20127;-81
2023/10/06 04:18:10;;;;;;;0.32;0.32;;;19.90;67.00;;;;;;5085752;28;20130;-80
2023/10/06 04:20:42;;;;;;;0.57;0.57;;;19.90;67.10;;;;;;5066627;28;20040;-80
2023/10/06 04:23:11;;;;;;;0.50;0.50;;;19.90;67.10;;;;;;5091296;28;20575;-81
2023/10/06 04:25:37;;;;;;;0.52;0.50;;;19.90;67.00;;;;;;5080256;28;20040;-80
2023/10/06 04:28:08;;;;;;;0.55;0.55;;;19.90;67.00;;;;;;5082911;28;21473;-80
2023/10/06 04:30:37;;;;;;;0.50;0.50;;;19.80;67.10;;;;;;5092381;28;20043;-81
2023/10/06 04:33:04;;;;;;;0.60;0.60;;;19.90;67.10;;;;;;5086455;28;20550;-80
2023/10/06 04:35:32;;;;;;;0.60;0.60;;;19.90;67.00;;;;;;5079617;28;20036;-81
2023/10/06 04:37:59;;;;;;;0.60;0.60;;;19.90;67.00;;;;;;5093666;28;20056;-80
2023/10/06 04:40:25;;;;;;;0.60;0.60;;;19.90;67.20;;;;;;5079169;28;20036;-81
2023/10/06 04:42:51;;;;;;;0.50;0.50;;;19.90;67.80;;;;;;5085776;28;20032;-82
2023/10/06 04:45:16;;;;;;;0.55;0.55;;;19.80;67.10;;;;;;5067391;28;20039;-82
2023/10/06 04:47:42;;;;;;;0.50;0.50;;;19.80;67.00;;;;;;5077717;28;20147;-82
2023/10/06 04:50:09;;;;;;;0.60;0.60;;;19.90;67.00;;;;;;5084162;28;20378;-81
2023/10/06 04:52:36;;;;;;;0.47;0.47;;;19.90;67.20;;;;;;5083460;28;20362;-82
2023/10/06 04:55:04;;;;;;;0.50;0.50;;;19.80;67.10;;;;;;5085711;28;20044;-82
2023/10/06 04:57:29;;;;;;;0.45;0.45;;;19.80;67.00;;;;;;5077167;28;20097;-84
2023/10/06 04:59:55;;;;;;;0.50;0.50;;;19.90;67.40;;;;;;5080925;28;20044;-82
2023/10/06 05:02:23;;;;;;;0.55;0.55;;;19.90;66.70;;;;;;5089017;28;20609;-84
2023/10/06 05:04:51;;;;;;;13.15;0.50;;;19.80;67.00;;;;;;5078230;28;20046;-84
2023/10/06 05:07:16;;;;;;;1.73;0.50;;;19.80;67.30;;;;;;5093291;28;20566;-83
2023/10/06 05:09:42;;;;;;;0.60;0.60;;;19.80;67.00;;;;;;5088131;28;20122;-83
2023/10/06 05:12:09;;;;;;;0.80;0.80;;;19.80;67.10;;;;;;5096020;28;20107;-83
2023/10/06 05:14:35;;;;;;;0.68;0.68;;;19.80;67.10;;;;;;5088123;28;20420;-81
2023/10/06 05:17:01;;;;;;;0.60;0.50;;;19.80;67.30;;;;;;5094917;28;20040;-78
2023/10/06 05:19:27;;;;;;;0.60;0.60;;;19.80;67.50;;;;;;5079644;28;20453;-79
2023/10/06 05:21:53;;;;;;;0.80;0.80;;;19.80;67.50;;;;;;5083487;28;20048;-79
2023/10/06 05:24:19;;;;;;;1.25;0.80;;;19.80;67.60;;;;;;5083431;28;20047;-80
2023/10/06 05:26:44;;;;;;;1.00;0.60;;;19.90;67.90;;;;;;5079784;28;20044;-80
2023/10/06 05:29:14;;;;;;;0.75;0.70;;;19.80;67.50;;;;;;5095641;28;20044;-81
2023/10/06 05:31:40;;;;;;;0.77;0.77;;;19.80;67.20;;;;;;5088521;28;20505;-81
2023/10/06 05:34:07;;;;;;;0.50;0.40;;;19.80;67.30;;;;;;5068705;28;20047;-80
2023/10/06 05:36:33;;;;;;;0.47;0.47;;;19.80;67.20;;;;;;5074720;28;20050;-80
2023/10/06 05:38:59;;;;;;;0.57;0.50;;;19.80;67.10;;;;;;5102743;27;20036;-79
2023/10/06 05:41:34;;;;;;;0.45;0.45;;;19.80;67.10;;;;;;5076602;28;20513;-81
2023/10/06 05:43:59;;;;;;;1.23;0.60;;;19.80;67.80;;;;;;5073990;28;20056;-80
2023/10/06 05:46:25;;;;;;;0.50;0.50;;;19.80;67.00;;;;;;4727013;28;10000632;-81
2023/10/06 05:48:53;;;;;;;0.77;0.47;;;19.80;67.60;;;;;;5081453;28;20044;-80
2023/10/06 05:51:21;;;;;;;0.68;0.50;;;19.80;67.50;;;;;;5089306;28;20155;-80
2023/10/06 05:53:48;;;;;;;0.65;0.60;;;19.80;67.50;;;;;;5087766;28;20112;-79
2023/10/06 05:56:15;;;;;;;0.43;0.43;;;19.80;67.50;;;;;;5080239;28;20138;-81
2023/10/06 05:58:43;;;;;;;0.60;0.60;;;19.80;67.30;;;;;;5041352;28;20051;-75
2023/10/06 06:01:13;;;;;;;1.05;0.63;;;19.80;67.50;;;;;;5085765;28;20052;-76
2023/10/06 06:03:44;;;;;;;2.33;0.50;;;19.80;67.40;;;;;;5071575;28;20051;-73
2023/10/06 06:06:10;;;;;;;0.50;0.50;;;19.80;67.10;;;;;;5084473;28;20104;-74
2023/10/06 06:08:38;;;;;;;0.50;0.40;;;19.80;67.20;;;;;;5083322;28;20051;-75
2023/10/06 06:11:05;;;;;;;0.40;0.40;;;19.80;67.40;;;;;;5077781;28;20041;-75
2023/10/06 06:13:31;;;;;;;0.50;0.50;;;19.80;67.70;;;;;;5073665;28;20040;-74
2023/10/06 06:15:56;;;;;;;0.45;0.45;;;19.80;67.30;;;;;;5089688;28;20040;-74
2023/10/06 06:18:25;;;;;;;0.40;0.40;;;19.80;67.60;;;;;;5084776;28;20032;-74
2023/10/06 06:20:51;;;;;;;0.60;0.50;;;19.80;67.90;;;;;;5084631;28;20063;-75
2023/10/06 06:23:17;;;;;;;0.65;0.47;;;19.90;67.20;;;;;;5063150;28;20044;-74
2023/10/06 06:25:44;;;;;;;0.70;0.50;;;19.80;67.10;;;;;;5073046;28;20044;-73
2023/10/06 06:28:12;;;;;;;0.57;0.57;;;19.80;66.70;;;;;;5028778;28;20046;-75
2023/10/06 06:30:39;;;;;;;0.88;0.50;;;19.80;66.70;;;;;;5031737;28;20551;-74
2023/10/06 06:33:05;;;;;;;0.70;0.70;;;19.80;66.70;;;;;;5042491;28;20120;-75
2023/10/06 06:35:32;;;;;;;0.50;0.50;;;19.80;66.90;;;;;;5072006;28;20228;-75
2023/10/06 06:38:01;;;;;;;0.50;0.50;;;19.80;66.90;;;;;;5044712;28;20053;-75
2023/10/06 06:40:28;;;;;;;0.60;0.60;;;19.80;67.10;;;;;;5054291;28;20056;-74
2023/10/06 06:42:55;;;;;;;0.52;0.52;;;19.80;66.90;;;;;;5095977;27;20389;-74
2023/10/06 06:45:21;;;;;;;0.40;0.40;;;19.80;67.40;;;;;;5077708;28;20422;-74
2023/10/06 06:47:47;;;;;;;0.40;0.40;;;19.80;67.20;;;;;;5079675;28;20126;-74
2023/10/06 06:50:13;;;;;;;0.52;0.40;;;19.80;67.30;;;;;;5076202;28;20460;-74
2023/10/06 06:52:39;;;;;;;0.70;0.60;;;19.80;67.10;;;;;;5071227;28;20431;-74
2023/10/06 06:55:12;;;;;;;1.00;0.80;;;19.70;66.70;;;;;;5083331;28;20207;-74
2023/10/06 06:57:49;;;;;;;1.42;1.02;;;19.70;66.20;;;;;;5066968;28;20039;-74
2023/10/06 07:00:24;;;;;;;1.92;1.10;;;19.70;65.80;;;;;;5074723;28;20517;-75
2023/10/06 07:02:50;;;;;;;1.35;1.02;;;19.70;65.50;;;;;;5082323;28;20075;-75
2023/10/06 07:05:17;;;;;;;1.08;0.98;;;19.70;64.80;;;;;;5042456;28;20139;-75
2023/10/06 07:07:43;;;;;;;0.95;0.93;;;19.70;64.60;;;;;;5081038;28;20047;-75
2023/10/06 07:10:19;;;;;;;1.40;1.30;;;19.70;64.30;;;;;;5063414;28;20455;-75
2023/10/06 07:12:48;;;;;;;2.28;1.02;;;19.70;64.20;;;;;;5095064;28;20040;-74
2023/10/06 07:15:20;;;;;;;1.77;0.90;;;19.60;63.80;;;;;;5074169;28;20036;-75
2023/10/06 07:17:53;;;;;;;1.70;1.20;;;19.60;64.10;;;;;;5094281;28;20067;-73
2023/10/06 07:20:23;;;;;;;1.15;1.05;;;19.50;64.20;;;;;;5071175;28;20134;-73
2023/10/06 07:22:52;;;;;;;1.52;1.00;;;19.60;63.80;;;;;;5064578;28;20657;-74
2023/10/06 07:25:18;;;;;;;1.10;0.90;;;19.50;63.80;;;;;;5085336;28;20051;-73
2023/10/06 07:27:45;;;;;;;2.03;1.42;;;19.50;63.60;;;;;;5073844;28;20032;-74
2023/10/06 07:30:14;;;;;;;1.55;1.25;;;19.50;63.70;;;;;;5069746;28;21513;-74
2023/10/06 07:32:41;;;;;;;1.42;1.33;;;19.50;63.40;;;;;;5079986;28;20044;-73
2023/10/06 07:35:19;;;;;;;1.33;1.23;;;19.50;63.40;;;;;;5083676;28;20663;-73
2023/10/06 07:37:47;;;;;;;1.27;1.17;;;19.50;63.20;;;;;;5077400;28;20619;-73
2023/10/06 07:40:14;;;;;;;1.70;1.60;;;19.50;64.00;;;;;;5082360;28;20055;-74
2023/10/06 07:42:44;;;;;;;1.90;1.75;;;19.50;63.30;;;;;;5077893;28;20055;-73
2023/10/06 07:45:10;;;;;;;1.90;1.80;;;19.50;63.20;;;;;;5061680;28;20069;-74
2023/10/06 07:47:36;;;;;;;2.35;2.10;;;19.40;63.40;;;;;;5073222;28;20032;-75
2023/10/06 07:50:05;;;;;;;2.63;2.42;;;19.50;63.10;;;;;;5062893;28;20102;-75
2023/10/06 07:52:33;;;;;;;3.47;2.42;;;19.30;60.60;;;;;;5081432;28;20052;-75
2023/10/06 07:55:00;;;;;;;4.93;2.47;;;19.10;60.70;;;;;;5069963;28;20480;-75
2023/10/06 07:57:31;;;;;;;2.30;2.10;;;18.80;60.60;;;;;;5068988;28;20048;-74
2023/10/06 07:59:59;;;;;;;4.43;2.42;;;18.70;60.90;;;;;;5069054;28;20119;-75
2023/10/06 08:02:26;;;;;;;2.30;2.10;;;18.50;61.10;;;;;;5061084;28;20055;-74
2023/10/06 08:04:52;;;;;;;2.05;1.90;;;18.50;61.30;;;;;;5055656;28;20606;-75
2023/10/06 08:07:20;;;;;;;3.58;1.83;;;18.40;61.30;;;;;;5067308;28;20427;-75
2023/10/06 08:09:46;;;;;;;2.13;1.92;;;18.40;62.50;;;;;;5081995;28;20051;-75
2023/10/06 08:12:13;;;;;;;3.63;2.10;;;18.40;62.10;;;;;;5083308;28;20404;-75
2023/10/06 08:14:39;;;;;;;2.60;2.40;;;18.30;62.40;;;;;;5065695;28;20147;-75
2023/10/06 08:17:05;;;;;;;2.63;1.95;;;18.20;62.60;;;;;;5102292;27;20501;-75
2023/10/06 08:19:31;;;;;;;2.72;1.85;;;18.20;62.70;;;;;;5082652;28;20036;-75
2023/10/06 08:21:57;;;;;;;1.88;1.77;;;18.20;62.90;;;;;;5077925;28;20052;-75
2023/10/06 08:24:22;;;;;;;1.98;1.88;;;18.20;63.00;;;;;;5064319;28;20041;-75
2023/10/06 08:26:48;;;;;;;2.47;2.22;;;18.20;63.30;;;;;;5051463;28;20098;-75
2023/10/06 08:29:14;;;;;;;2.28;2.08;;;18.30;63.50;;;;;;5062556;28;20078;-75
2023/10/06 08:31:42;;;;;;;3.95;2.35;;;18.30;63.10;;;;;;5058467;28;20044;-74
2023/10/06 08:34:08;;;;;;;2.78;2.03;;;18.20;63.50;;;;;;5058236;28;20514;-75
2023/10/06 08:36:35;;;;;;;2.45;2.10;;;18.20;63.60;;;;;;5063466;28;20056;-75
2023/10/06 08:39:00;;;;;;;2.10;1.90;;;18.30;63.70;;;;;;5059260;28;20467;-75
2023/10/06 08:41:31;;;;;;;2.40;2.15;;;18.40;63.70;;;;;;5061530;28;20128;-75
2023/10/06 08:43:59;;;;;;;2.88;2.13;;;18.40;63.70;;;;;;5051329;28;20040;-74
2023/10/06 08:46:26;;;;;;;1.98;1.77;;;18.60;63.40;;;;;;5048524;28;20049;-74
2023/10/06 08:48:52;;;;;;;1.85;1.70;;;18.70;63.30;;;;;;5049610;28;20047;-74
2023/10/06 08:51:19;;;;;;;2.67;1.92;;;18.70;63.00;;;;;;5040548;28;20048;-73
2023/10/06 08:53:44;;;;;;;2.80;1.80;;;18.70;63.10;;;;;;5059900;28;20041;-73
2023/10/06 08:56:14;;;;;;;1.63;1.52;;;18.80;62.90;;;;;;5058839;28;20067;-73
2023/10/06 08:58:41;;;;;;;2.05;1.85;;;18.90;63.00;;;;;;5061975;28;20024;-73
2023/10/06 09:01:07;;;;;;;1.90;1.70;;;19.00;63.20;;;;;;5058242;28;20425;-74
2023/10/06 09:03:33;;;;;;;1.65;1.55;;;19.00;63.20;;;;;;5041681;28;20838;-73
2023/10/06 09:05:58;;;;;;;1.48;1.38;;;19.10;63.30;;;;;;5062229;28;20640;-74
2023/10/06 09:08:24;;;;;;;2.00;1.80;;;19.10;63.30;;;;;;5061949;28;20579;-73
2023/10/06 09:10:50;;;;;;;3.22;1.88;;;19.10;63.20;;;;;;5063028;28;20057;-73
2023/10/06 09:13:17;;;;;;;1.88;1.65;;;19.10;63.00;;;;;;5063161;28;20044;-73
2023/10/06 09:15:44;;;;;;;1.60;1.35;;;19.10;63.00;;;;;;5063212;28;20161;-74
2023/10/06 09:18:20;;;;;;;1.92;1.73;;;19.20;63.60;;;;;;4690595;28;10000327;-74
2023/10/06 09:20:47;;;;;;;1.55;1.45;;;19.20;64.20;;;;;;5068702;28;20518;-74
2023/10/06 09:23:34;;;;;;;1.58;1.48;;;19.20;63.80;;;;;;5057363;28;20604;-74
2023/10/06 09:26:00;;;;;;;1.30;1.20;;;19.30;65.70;;;;;;5081278;28;20467;-73
2023/10/06 09:28:26;;;;;;;2.40;2.20;;;19.40;64.60;;;;;;5065036;28;20159;-74
2023/10/06 09:30:57;;;;;;;4.43;2.33;;;19.50;63.30;;;;;;5067490;28;20043;-74
2023/10/06 09:33:26;;;;;;;1.70;1.60;;;19.40;63.10;;;;;;5077069;28;20046;-74
2023/10/06 09:36:10;;;;;;;2.40;2.10;;;19.30;63.10;;;;;;5066621;28;20131;-74
2023/10/06 09:38:40;;;;;;;2.88;2.05;;;19.40;62.80;;;;;;5080564;28;20466;-74
2023/10/06 09:41:07;;;;;;;2.47;2.08;;;19.30;62.50;;;;;;5087678;28;20045;-75
2023/10/06 09:43:38;;;;;;;4.25;2.28;;;19.40;62.70;;;;;;5075396;28;20120;-74
2023/10/06 09:46:08;;;;;;;3.92;2.20;;;19.30;63.10;;;;;;5089062;28;20039;-75
2023/10/06 09:48:38;;;;;;;3.70;2.05;;;19.30;63.30;;;;;;5083076;28;20036;-75
2023/10/06 09:51:07;;;;;;;2.00;1.90;;;19.30;63.20;;;;;;5053543;28;20039;-76
2023/10/06 09:53:38;;;;;;;2.60;2.28;;;19.40;63.40;;;;;;5075154;28;20024;-76
2023/10/06 09:56:09;;;;;;;3.55;1.95;;;19.40;63.20;;;;;;5089975;28;20464;-75
2023/10/06 09:58:35;;;;;;;2.35;1.90;;;19.40;62.70;;;;;;5071616;28;20425;-75
2023/10/06 10:01:02;;;;;;;2.72;2.10;;;19.40;62.80;;;;;;5091696;28;20039;-75
2023/10/06 10:03:28;;;;;;;2.08;1.80;;;19.50;62.60;;;;;;5056190;28;20089;-76
2023/10/06 10:05:55;;;;;;;1.63;1.52;;;19.40;62.70;;;;;;5095224;28;20039;-76
2023/10/06 10:08:22;;;;;;;2.58;1.60;;;19.40;62.40;;;;;;5070486;28;20093;-75
2023/10/06 10:10:52;;;;;;;1.90;1.50;;;19.50;61.90;;;;;;5066747;28;20032;-76
2023/10/06 10:13:54;;;;;;;1.50;1.40;;;19.50;62.20;;;;;;5058080;28;20040;-76
2023/10/06 10:16:56;;;;;;;3.00;1.70;;;19.50;62.50;;;;;;5088717;28;20066;-76
2023/10/06 10:19:25;;;;;;;2.38;2.00;;;19.50;62.10;;;;;;5084313;28;20039;-76
2023/10/06 10:21:51;;;;;;;2.38;1.88;;;19.60;61.90;;;;;;4707952;28;10000358;-75
2023/10/06 10:24:20;;;;;;;1.77;1.42;;;19.50;61.80;;;;;;5044455;28;20036;-75
2023/10/06 10:26:50;;;;;;;2.33;1.77;;;19.50;62.00;;;;;;5049098;28;20048;-75
2023/10/06 10:29:16;;;;;;;1.40;1.25;;;19.60;62.50;;;;;;5079109;28;20039;-75
2023/10/06 10:31:46;;;;;;;4.70;1.30;;;19.60;62.50;;;;;;5056396;28;20040;-75
2023/10/06 10:34:25;;;;;;;4.38;1.40;;;19.60;62.40;;;;;;5039523;28;20477;-75
2023/10/06 10:37:05;;;;;;;2.83;1.73;;;19.70;62.30;;;;;;5047837;28;20044;-75
2023/10/06 10:39:58;;;;;;;1.48;1.38;;;19.70;62.10;;;;;;5057984;28;20098;-75
2023/10/06 10:42:39;;;;;;;2.13;1.88;;;19.70;62.30;;;;;;5049953;28;20044;-75
2023/10/06 10:45:28;;;;;;;2.55;1.55;;;19.70;61.20;;;;;;5042396;28;20087;-76
2023/10/06 10:47:55;;;;;;;2.17;1.98;;;19.80;61.70;;;;;;5067077;28;20060;-77
2023/10/06 10:50:25;;;;;;;10.38;8.02;;;19.80;61.60;;;;;;5062283;28;20046;-75
2023/10/06 10:52:53;;;;;;;7.38;6.57;;;19.80;62.00;;;;;;5047451;28;20483;-76
2023/10/06 10:55:23;;;;;;;6.80;4.95;;;19.80;62.10;;;;;;5068606;28;20073;-75
2023/10/06 10:57:51;;;;;;;4.45;3.65;;;19.80;61.50;;;;;;5040683;28;20506;-76
2023/10/06 11:00:20;;;;;;;3.65;2.97;;;19.90;62.10;;;;;;5046828;28;20049;-75
2023/10/06 11:02:49;;;;;;;3.28;2.35;;;19.90;61.80;;;;;;5060721;28;20060;-76
2023/10/06 11:05:24;;;;;;;2.67;2.40;;;19.90;61.90;;;;;;5053412;28;20531;-77
2023/10/06 11:08:01;;;;;;;2.60;2.40;;;19.90;61.50;;;;;;5058958;28;20041;-77
2023/10/06 11:10:26;;;;;;;2.50;1.90;;;19.90;61.60;;;;;;5062094;28;20045;-76
2023/10/06 11:13:15;;;;;;;2.72;2.08;;;19.90;61.70;;;;;;5063228;28;20043;-76
2023/10/06 11:15:42;;;;;;;2.05;1.88;;;20.00;61.70;;;;;;5062933;28;20044;-76
2023/10/06 11:18:09;;;;;;;2.08;1.98;;;20.00;61.40;;;;;;5066068;28;20136;-76
2023/10/06 11:20:39;;;;;;;2.35;2.15;;;20.00;61.30;;;;;;5064559;28;20057;-76
2023/10/06 11:23:05;;;;;;;5.55;1.58;;;20.00;61.30;;;;;;5096080;28;20164;-76
2023/10/06 11:25:32;;;;;;;2.10;1.90;;;20.10;61.40;;;;;;5084765;28;20548;-76
2023/10/06 11:28:02;;;;;;;2.20;2.00;;;20.10;61.40;;;;;;5080837;28;20048;-76
2023/10/06 11:30:28;;;;;;;2.85;2.03;;;20.10;61.20;;;;;;5064890;28;20566;-76
2023/10/06 11:32:56;;;;;;;2.08;1.90;;;20.10;61.10;;;;;;5065911;28;20153;-74
2023/10/06 11:35:22;;;;;;;2.20;2.00;;;20.10;61.10;;;;;;5081159;28;20756;-76
2023/10/06 11:37:48;;;;;;;2.97;1.75;;;20.10;61.10;;;;;;5088918;28;20040;-75
2023/10/06 11:40:14;;;;;;;1.92;1.70;;;20.20;61.20;;;;;;5084152;28;20421;-75
2023/10/06 11:42:41;;;;;;;1.95;1.85;;;20.20;61.20;;;;;;5087396;28;20522;-75
2023/10/06 11:45:24;;;;;;;2.28;2.00;;;20.20;61.30;;;;;;5077565;28;20059;-75
2023/10/06 11:47:51;;;;;;;2.23;1.77;;;20.20;61.20;;;;;;5073470;28;20142;-76
2023/10/06 11:50:20;;;;;;;2.13;1.98;;;20.20;61.30;;;;;;5103895;27;20086;-76
2023/10/06 11:52:46;;;;;;;2.30;2.10;;;20.20;61.30;;;;;;5079063;28;20054;-76
2023/10/06 11:55:14;;;;;;;3.00;2.22;;;20.30;61.10;;;;;;5067848;28;20536;-76
2023/10/06 11:57:51;;;;;;;2.63;2.13;;;20.20;61.10;;;;;;5053536;28;20051;-76
2023/10/06 12:00:17;;;;;;;3.20;2.55;;;20.30;61.10;;;;;;5078562;28;20068;-77
2023/10/06 12:02:50;;;;;;;2.42;2.33;;;20.30;60.90;;;;;;5084560;28;20446;-77
2023/10/06 12:05:18;;;;;;;3.67;2.55;;;20.30;60.70;;;;;;5086169;28;20040;-77
2023/10/06 12:07:45;;;;;;;3.75;3.33;;;20.30;61.30;;;;;;5088412;28;20052;-77
2023/10/06 12:10:11;;;;;;;3.17;2.95;;;20.30;61.30;;;;;;5090619;28;20125;-77
2023/10/06 12:12:37;;;;;;;3.95;3.45;;;20.30;61.30;;;;;;5069477;28;20557;-77
2023/10/06 12:15:02;;;;;;;3.50;3.20;;;20.30;61.10;;;;;;5083955;28;20032;-77
2023/10/06 12:17:30;;;;;;;3.78;3.45;;;20.30;61.00;;;;;;5076363;28;20527;-76
2023/10/06 12:19:55;;;;;;;4.65;3.85;;;20.30;60.90;;;;;;5092644;28;20047;-76
2023/10/06 12:22:23;;;;;;;5.28;4.30;;;20.30;60.90;;;;;;5079233;28;20048;-77
2023/10/06 12:24:48;;;;;;;5.20;4.80;;;20.40;60.90;;;;;;5094766;28;20068;-76
2023/10/06 12:27:17;;;;;;;6.15;5.55;;;20.40;61.00;;;;;;5092386;28;20071;-76
2023/10/06 12:29:44;;;;;;;8.35;6.22;;;20.40;61.00;;;;;;5072413;28;20595;-76
2023/10/06 12:32:10;;;;;;;5.53;5.13;;;20.40;61.10;;;;;;5069166;28;20111;-77
2023/10/06 12:34:36;;;;;;;7.82;6.80;;;20.40;61.30;;;;;;5080017;28;20119;-76
2023/10/06 12:37:03;;;;;;;8.57;6.88;;;20.40;61.40;;;;;;5086098;28;20121;-76
2023/10/06 12:39:34;;;;;;;10.10;8.82;;;20.50;61.70;;;;;;5081100;28;20040;-76
2023/10/06 12:42:01;;;;;;;13.38;10.20;;;20.50;62.00;;;;;;5084475;28;20054;-76
2023/10/06 12:44:27;;;;;;;16.70;13.40;;;20.50;61.90;;;;;;5085965;28;20040;-76
2023/10/06 12:46:55;;;;;;;20.48;14.25;;;20.50;61.80;;;;;;5091530;28;20553;-76
2023/10/06 12:49:23;;;;;;;22.83;17.25;;;20.50;62.10;;;;;;5084419;28;20050;-76
2023/10/06 12:51:49;;;;;;;25.40;19.42;;;20.50;62.30;;;;;;5083861;28;20075;-76
2023/10/06 12:54:15;;;;;;;22.65;17.63;;;20.50;62.50;;;;;;5091568;28;20044;-76
2023/10/06 12:56:44;;;;;;;25.40;18.80;;;20.50;62.50;;;;;;5080218;28;20052;-75
2023/10/06 12:59:11;;;;;;;23.52;18.50;;;20.60;62.30;;;;;;5085668;28;20247;-76
2023/10/06 13:01:37;;;;;;;30.52;20.67;;;20.60;62.40;;;;;;5090787;28;20043;-76
2023/10/06 13:04:03;;;;;;;29.65;19.60;;;20.70;62.20;;;;;;5086778;28;20055;-75